createdAt,value
2019-05-17T00:01:10.809Z,19.26
2019-05-17T00:03:37.783Z,19.26
2019-05-17T00:06:06.658Z,19.26
2019-05-17T00:08:34.945Z,19.26
2019-05-17T00:11:02.472Z,19.25
2019-05-17T00:13:29.474Z,19.27
2019-05-17T00:15:56.681Z,19.26
2019-05-17T00:18:23.738Z,19.26
2019-05-17T00:20:50.703Z,19.26
2019-05-17T00:23:17.776Z,19.27
2019-05-17T00:25:46.966Z,19.26
2019-05-17T00:28:13.769Z,19.27
2019-05-17T00:30:40.611Z,19.26
2019-05-17T00:33:08.090Z,19.26
2019-05-17T00:35:37.353Z,19.26
2019-05-17T00:38:03.631Z,19.26
2019-05-17T00:40:30.456Z,19.27
2019-05-17T00:42:57.253Z,19.27
2019-05-17T00:45:26.745Z,19.26
2019-05-17T00:47:53.730Z,19.27
2019-05-17T00:50:21.678Z,19.27
2019-05-17T00:52:48.640Z,19.27
2019-05-17T00:55:17.537Z,19.26
2019-05-17T00:57:44.143Z,19.27
2019-05-17T01:00:11.449Z,19.27
2019-05-17T01:02:38.363Z,19.27
2019-05-17T01:05:06.386Z,19.27
2019-05-17T01:07:33.360Z,19.27
2019-05-17T01:10:00.429Z,19.27
2019-05-17T01:12:27.342Z,19.27
2019-05-17T01:14:54.203Z,19.27
2019-05-17T01:17:21.045Z,19.27
2019-05-17T01:19:47.850Z,19.27
2019-05-17T01:22:16.744Z,19.28
2019-05-17T01:24:43.308Z,19.27
2019-05-17T01:27:10.100Z,19.27
2019-05-17T01:29:37.000Z,19.27
2019-05-17T01:32:03.857Z,19.28
2019-05-17T01:34:30.671Z,19.26
2019-05-17T01:36:57.593Z,19.28
2019-05-17T01:39:26.726Z,19.27
2019-05-17T01:41:53.089Z,19.27
2019-05-17T01:44:19.987Z,19.26
2019-05-17T01:46:46.907Z,19.27
2019-05-17T01:49:13.727Z,19.28
2019-05-17T01:51:40.600Z,19.27
2019-05-17T01:54:07.570Z,19.27
2019-05-17T01:56:34.326Z,19.27
2019-05-17T01:59:01.126Z,19.28
2019-05-17T02:01:28.295Z,19.26
2019-05-17T02:03:57.369Z,19.28
2019-05-17T02:06:23.725Z,19.27
2019-05-17T02:08:50.630Z,19.28
2019-05-17T02:11:18.446Z,19.27
2019-05-17T02:13:46.739Z,19.27
2019-05-17T02:16:13.696Z,19.28
2019-05-17T02:18:40.636Z,19.28
2019-05-17T02:21:07.590Z,19.28
2019-05-17T02:23:36.962Z,19.28
2019-05-17T02:26:02.930Z,19.28
2019-05-17T02:28:32.027Z,19.28
2019-05-17T02:30:58.321Z,19.28
2019-05-17T02:33:25.128Z,19.28
2019-05-17T02:35:53.630Z,19.28
2019-05-17T02:38:22.478Z,19.28
2019-05-17T02:40:49.477Z,19.28
2019-05-17T02:43:16.433Z,19.24
2019-05-17T02:45:43.640Z,19.28
2019-05-17T02:48:13.418Z,19.28
2019-05-17T02:50:39.387Z,19.29
2019-05-17T02:53:06.359Z,19.28
2019-05-17T02:55:33.461Z,19.29
2019-05-17T02:58:02.946Z,19.28
2019-05-17T03:00:33.310Z,19.30
2019-05-17T03:02:58.211Z,19.27
2019-05-17T03:05:25.236Z,19.28
2019-05-17T03:07:52.895Z,19.28
2019-05-17T03:10:25.210Z,19.29
2019-05-17T03:12:48.646Z,19.28
2019-05-17T03:15:15.667Z,19.30
2019-05-17T03:17:44.335Z,19.29
2019-05-17T03:20:12.840Z,19.28
2019-05-17T03:22:39.759Z,19.29
2019-05-17T03:25:06.701Z,19.28
2019-05-17T03:27:33.851Z,19.30
2019-05-17T03:30:04.256Z,19.29
2019-05-17T03:32:35.447Z,19.29
2019-05-17T03:34:58.071Z,19.29
2019-05-17T03:37:29.937Z,19.29
2019-05-17T03:39:53.724Z,19.29
2019-05-17T03:42:22.586Z,19.30
2019-05-17T03:44:52.904Z,19.30
2019-05-17T03:47:18.213Z,19.29
2019-05-17T03:49:45.212Z,19.29
2019-05-17T03:52:13.583Z,19.29
2019-05-17T03:54:43.071Z,19.29
2019-05-17T03:57:09.295Z,19.29
2019-05-17T03:59:36.298Z,19.28
2019-05-17T04:02:03.622Z,19.29
2019-05-17T04:04:33.086Z,19.29
2019-05-17T04:07:03.154Z,19.29
2019-05-17T04:09:28.801Z,19.28
2019-05-17T04:11:55.663Z,19.30
2019-05-17T04:14:22.709Z,19.30
2019-05-17T04:16:49.604Z,19.28
2019-05-17T04:19:16.523Z,19.30
2019-05-17T04:21:43.325Z,19.29
2019-05-17T04:24:12.732Z,19.30
2019-05-17T04:26:38.938Z,19.29
2019-05-17T04:29:05.832Z,19.28
2019-05-17T04:31:34.964Z,19.29
2019-05-17T04:34:02.932Z,19.29
2019-05-17T04:36:32.190Z,19.29
2019-05-17T04:38:58.489Z,19.29
2019-05-17T04:41:39.756Z,19.28
2019-05-17T04:43:54.009Z,19.30
2019-05-17T04:46:23.654Z,19.29
2019-05-17T04:48:49.433Z,19.29
2019-05-17T04:51:16.241Z,19.29
2019-05-17T04:53:43.322Z,19.30
2019-05-17T04:56:13.695Z,19.30
2019-05-17T04:58:39.026Z,19.30
2019-05-17T05:01:05.939Z,19.29
2019-05-17T05:03:32.887Z,19.29
2019-05-17T05:06:02.936Z,19.29
2019-05-17T05:08:28.542Z,19.30
2019-05-17T05:10:55.497Z,19.29
2019-05-17T05:13:22.879Z,19.30
2019-05-17T05:15:52.226Z,19.29
2019-05-17T05:18:18.729Z,19.30
2019-05-17T05:20:46.042Z,19.30
2019-05-17T05:23:13.531Z,19.30
2019-05-17T05:25:42.901Z,19.30
2019-05-17T05:28:11.343Z,19.29
2019-05-17T05:30:38.421Z,19.29
2019-05-17T05:33:05.443Z,19.30
2019-05-17T05:35:32.452Z,19.28
2019-05-17T05:38:01.994Z,19.29
2019-05-17T05:40:28.441Z,19.29
2019-05-17T05:42:55.419Z,19.29
2019-05-17T05:45:25.200Z,19.29
2019-05-17T05:47:52.230Z,19.29
2019-05-17T05:50:21.804Z,19.28
2019-05-17T05:52:48.291Z,19.29
2019-05-17T05:55:15.306Z,19.28
2019-05-17T05:57:42.417Z,19.29
2019-05-17T06:00:09.732Z,16.61
2019-05-17T06:02:38.315Z,19.29
2019-05-17T06:05:05.320Z,19.29
2019-05-17T06:07:32.428Z,19.28
2019-05-17T06:10:02.027Z,19.29
2019-05-17T06:12:28.338Z,19.28
2019-05-17T06:14:55.618Z,19.30
2019-05-17T06:17:22.583Z,19.28
2019-05-17T06:19:51.554Z,19.28
2019-05-17T06:22:18.603Z,19.28
2019-05-17T06:24:46.408Z,19.30
2019-05-17T06:27:21.477Z,19.29
2019-05-17T06:29:48.348Z,19.29
2019-05-17T06:32:16.467Z,19.30
2019-05-17T06:34:43.559Z,19.28
2019-05-17T06:37:12.710Z,19.29
2019-05-17T06:39:41.804Z,19.28
2019-05-17T06:42:08.010Z,19.28
2019-05-17T06:44:34.960Z,19.28
2019-05-17T06:47:02.643Z,19.29
2019-05-17T06:49:31.674Z,19.28
2019-05-17T06:51:58.522Z,19.29
2019-05-17T06:54:25.508Z,19.29
2019-05-17T06:56:52.656Z,19.29
2019-05-17T06:59:19.792Z,19.29
2019-05-17T07:01:46.861Z,19.28
2019-05-17T07:04:13.884Z,19.29
2019-05-17T07:06:40.854Z,19.28
2019-05-17T07:09:09.880Z,19.28
2019-05-17T07:11:36.412Z,19.29
2019-05-17T07:14:05.204Z,19.28
2019-05-17T07:16:32.173Z,19.27
2019-05-17T07:18:59.725Z,19.28
2019-05-17T07:21:26.861Z,19.29
2019-05-17T07:23:53.715Z,19.28
2019-05-17T07:26:20.796Z,19.28
2019-05-17T07:28:49.765Z,19.29
2019-05-17T07:31:19.380Z,19.28
2019-05-17T07:33:45.692Z,19.28
2019-05-17T07:36:12.512Z,19.28
2019-05-17T07:38:39.766Z,19.28
2019-05-17T07:41:06.958Z,19.28
2019-05-17T07:43:33.901Z,19.28
2019-05-17T07:46:00.871Z,19.27
2019-05-17T07:48:27.824Z,19.28
2019-05-17T07:50:54.679Z,19.28
2019-05-17T07:53:21.797Z,19.28
2019-05-17T07:55:50.620Z,19.27
2019-05-17T07:58:21.321Z,19.28
2019-05-17T08:00:51.206Z,19.28
2019-05-17T08:03:24.859Z,19.28
2019-05-17T08:05:53.307Z,19.28
2019-05-17T08:08:20.912Z,19.28
2019-05-17T08:10:50.741Z,19.29
2019-05-17T08:13:29.129Z,19.31
2019-05-17T08:15:45.101Z,19.32
2019-05-17T08:18:12.034Z,19.32
2019-05-17T08:20:40.171Z,19.33
2019-05-17T08:23:07.258Z,19.33
2019-05-17T08:25:34.140Z,19.36
2019-05-17T08:28:00.910Z,19.19
2019-05-17T08:30:30.186Z,18.56
2019-05-17T08:32:56.198Z,18.36
2019-05-17T08:35:23.011Z,18.37
2019-05-17T08:37:50.033Z,18.38
2019-05-17T08:40:16.868Z,18.38
2019-05-17T08:42:43.661Z,18.30
2019-05-17T08:45:10.481Z,18.25
2019-05-17T08:47:39.537Z,18.14
2019-05-17T08:50:05.792Z,18.22
2019-05-17T08:52:32.583Z,18.31
2019-05-17T08:55:00.382Z,18.31
2019-05-17T08:57:30.070Z,18.30
2019-05-17T08:59:55.859Z,18.31
2019-05-17T09:02:22.644Z,18.31
2019-05-17T09:04:49.881Z,18.28
2019-05-17T09:07:16.800Z,18.33
2019-05-17T09:09:43.578Z,18.31
2019-05-17T09:12:11.059Z,18.31
2019-05-17T09:14:39.970Z,18.36
2019-05-17T09:17:06.533Z,18.33
2019-05-17T09:19:33.315Z,18.39
2019-05-17T09:22:00.087Z,18.37
2019-05-17T09:24:26.943Z,18.37
2019-05-17T09:26:53.754Z,18.46
2019-05-17T09:29:20.532Z,18.54
2019-05-17T09:31:47.327Z,18.48
2019-05-17T09:34:14.111Z,18.43
2019-05-17T09:36:41.061Z,18.42
2019-05-17T09:39:09.498Z,18.53
2019-05-17T09:41:36.420Z,18.61
2019-05-17T09:44:14.251Z,18.71
2019-05-17T09:46:31.714Z,18.84
2019-05-17T09:49:01.006Z,18.92
2019-05-17T09:51:27.006Z,18.97
2019-05-17T09:53:53.782Z,18.98
2019-05-17T09:56:20.784Z,19.02
2019-05-17T09:58:49.484Z,19.04
2019-05-17T10:01:16.200Z,19.06
2019-05-17T10:03:42.987Z,19.07
2019-05-17T10:06:09.865Z,19.08
2019-05-17T10:08:36.636Z,19.08
2019-05-17T10:11:09.681Z,19.09
2019-05-17T10:13:34.845Z,19.10
2019-05-17T10:16:01.624Z,19.11
2019-05-17T10:18:29.599Z,19.12
2019-05-17T10:20:56.449Z,19.14
2019-05-17T10:23:23.225Z,19.14
2019-05-17T10:25:49.998Z,19.15
2019-05-17T10:28:16.803Z,19.15
2019-05-17T10:30:43.606Z,19.17
2019-05-17T10:33:10.449Z,19.18
2019-05-17T10:35:37.249Z,19.18
2019-05-17T10:38:04.061Z,19.19
2019-05-17T10:40:30.826Z,19.19
2019-05-17T10:42:57.612Z,19.20
2019-05-17T10:45:24.393Z,19.22
2019-05-17T10:47:51.183Z,19.23
2019-05-17T10:50:20.394Z,19.24
2019-05-17T10:52:46.472Z,19.25
2019-05-17T10:55:13.258Z,19.25
2019-05-17T10:57:40.030Z,19.26
2019-05-17T11:00:06.812Z,19.27
2019-05-17T11:02:33.590Z,19.26
2019-05-17T11:05:00.904Z,19.27
2019-05-17T11:07:27.854Z,19.29
2019-05-17T11:09:54.609Z,19.30
2019-05-17T11:12:21.404Z,19.29
2019-05-17T11:14:55.902Z,18.63
2019-05-17T11:17:16.708Z,19.32
2019-05-17T11:19:43.478Z,19.33
2019-05-17T11:22:10.253Z,19.38
2019-05-17T11:24:37.032Z,19.40
2019-05-17T11:27:03.803Z,19.41
2019-05-17T11:29:30.592Z,19.41
2019-05-17T11:31:57.386Z,19.40
2019-05-17T11:34:25.667Z,19.40
2019-05-17T11:36:52.751Z,19.42
2019-05-17T11:39:19.528Z,19.44
2019-05-17T11:41:46.318Z,19.47
2019-05-17T11:44:13.093Z,19.49
2019-05-17T11:46:39.866Z,19.48
2019-05-17T11:49:06.651Z,19.47
2019-05-17T11:51:33.420Z,19.50
2019-05-17T11:54:00.207Z,19.50
2019-05-17T11:56:26.978Z,19.52
2019-05-17T11:58:53.790Z,19.52
2019-05-17T12:01:20.556Z,19.53
2019-05-17T12:03:47.348Z,19.53
2019-05-17T12:06:14.115Z,19.54
2019-05-17T12:08:40.926Z,19.55
2019-05-17T12:11:07.685Z,19.55
2019-05-17T12:13:34.447Z,19.56
2019-05-17T12:16:01.226Z,19.56
2019-05-17T12:18:28.006Z,19.58
2019-05-17T12:20:54.802Z,19.58
2019-05-17T12:23:21.591Z,19.59
2019-05-17T12:25:48.455Z,19.60
2019-05-17T12:28:15.339Z,19.60
2019-05-17T12:30:42.206Z,19.60
2019-05-17T12:33:09.111Z,19.58
2019-05-17T12:35:35.999Z,19.56
2019-05-17T12:38:02.852Z,19.56
2019-05-17T12:40:29.880Z,19.55
2019-05-17T12:42:56.897Z,19.54
2019-05-17T12:45:24.136Z,19.53
2019-05-17T12:47:51.047Z,19.53
2019-05-17T12:50:19.687Z,19.54
2019-05-17T12:52:49.696Z,19.54
2019-05-17T12:55:16.597Z,19.53
2019-05-17T12:57:43.536Z,19.53
2019-05-17T13:00:10.530Z,19.53
2019-05-17T13:02:37.594Z,19.52
2019-05-17T13:05:04.589Z,19.52
2019-05-17T13:07:31.480Z,19.51
2019-05-17T13:09:58.465Z,19.52
2019-05-17T13:12:25.334Z,19.52
2019-05-17T13:14:53.334Z,19.52
2019-05-17T13:17:20.278Z,19.53
2019-05-17T13:19:47.241Z,19.51
2019-05-17T13:22:14.181Z,19.51
2019-05-17T13:24:40.972Z,19.51
2019-05-17T13:27:07.916Z,19.51
2019-05-17T13:29:34.763Z,19.51
2019-05-17T13:32:01.587Z,19.51
2019-05-17T13:34:28.605Z,19.52
2019-05-17T13:36:55.584Z,19.51
2019-05-17T13:39:24.228Z,19.52
2019-05-17T13:41:51.151Z,19.51
2019-05-17T13:44:18.031Z,19.51
2019-05-17T13:46:44.912Z,19.51
2019-05-17T13:49:11.742Z,19.51
2019-05-17T13:51:38.751Z,19.51
2019-05-17T13:54:05.786Z,19.51
2019-05-17T13:56:32.766Z,19.51
2019-05-17T13:58:59.625Z,19.52
2019-05-17T14:01:27.579Z,19.52
2019-05-17T14:03:54.437Z,19.51
2019-05-17T14:06:21.249Z,19.51
2019-05-17T14:08:49.898Z,19.51
2019-05-17T14:11:17.005Z,19.52
2019-05-17T14:13:43.853Z,19.52
2019-05-17T14:16:10.654Z,19.51
2019-05-17T14:18:42.197Z,19.52
2019-05-17T14:21:09.178Z,19.51
2019-05-17T14:23:36.102Z,19.52
2019-05-17T14:26:03.170Z,19.52
2019-05-17T14:28:30.260Z,19.52
2019-05-17T14:30:57.223Z,19.53
2019-05-17T14:33:24.320Z,19.53
2019-05-17T14:35:51.463Z,19.52
2019-05-17T14:38:18.427Z,19.52
2019-05-17T14:41:05.739Z,19.53
2019-05-17T14:43:14.031Z,19.52
2019-05-17T14:45:40.966Z,19.53
2019-05-17T14:48:07.843Z,19.53
2019-05-17T14:50:34.775Z,19.53
2019-05-17T14:53:01.724Z,19.53
2019-05-17T14:55:30.913Z,19.53
2019-05-17T14:57:57.790Z,19.54
2019-05-17T15:00:26.806Z,19.53
2019-05-17T15:02:53.863Z,19.53
2019-05-17T15:05:20.755Z,19.54
2019-05-17T15:07:47.578Z,19.53
2019-05-17T15:10:14.504Z,19.53
2019-05-17T15:12:41.589Z,19.53
2019-05-17T15:15:08.515Z,19.53
2019-05-17T15:17:35.518Z,19.53
2019-05-17T15:20:02.708Z,19.54
2019-05-17T15:22:29.783Z,19.54
2019-05-17T15:24:57.683Z,19.55
2019-05-17T15:27:24.597Z,19.54
2019-05-17T15:29:51.642Z,19.54
2019-05-17T15:32:18.975Z,19.54
2019-05-17T15:34:46.031Z,19.54
2019-05-17T15:37:12.853Z,19.56
2019-05-17T15:39:39.689Z,19.55
2019-05-17T15:42:06.551Z,19.54
2019-05-17T15:44:33.384Z,19.54
2019-05-17T15:47:00.303Z,19.54
2019-05-17T15:49:27.246Z,19.55
2019-05-17T15:51:54.180Z,19.55
2019-05-17T15:54:21.072Z,19.55
2019-05-17T15:56:47.940Z,19.55
2019-05-17T15:59:14.996Z,19.55
2019-05-17T16:01:44.006Z,19.55
2019-05-17T16:04:11.075Z,19.56
2019-05-17T16:06:37.992Z,19.56
2019-05-17T16:09:05.943Z,19.56
2019-05-17T16:11:32.845Z,19.56
2019-05-17T16:13:59.683Z,19.56
2019-05-17T16:16:26.511Z,19.56
2019-05-17T16:18:57.534Z,19.56
2019-05-17T16:21:24.425Z,19.55
2019-05-17T16:23:51.354Z,19.56
2019-05-17T16:26:18.250Z,19.55
2019-05-17T16:28:45.267Z,19.55
2019-05-17T16:31:12.237Z,19.57
2019-05-17T16:33:39.178Z,19.55
2019-05-17T16:36:06.033Z,19.55
2019-05-17T16:38:33.066Z,19.55
2019-05-17T16:40:59.880Z,19.55
2019-05-17T16:43:26.863Z,19.55
2019-05-17T16:45:53.904Z,19.56
2019-05-17T16:48:20.801Z,19.56
2019-05-17T16:50:47.753Z,19.56
2019-05-17T16:53:14.730Z,19.56
2019-05-17T16:55:41.612Z,19.57
2019-05-17T16:58:08.485Z,19.56
2019-05-17T17:00:36.240Z,19.56
2019-05-17T17:03:03.251Z,19.58
2019-05-17T17:05:30.196Z,19.58
2019-05-17T17:07:57.242Z,19.58
2019-05-17T17:10:26.162Z,19.58
2019-05-17T17:12:53.171Z,19.57
2019-05-17T17:15:20.136Z,19.55
2019-05-17T17:17:47.015Z,19.59
2019-05-17T17:20:13.941Z,19.62
2019-05-17T17:22:43.171Z,18.62
2019-05-17T17:25:11.109Z,19.50
2019-05-17T17:27:37.966Z,18.80
2019-05-17T17:30:04.887Z,19.47
2019-05-17T17:32:33.627Z,19.46
2019-05-17T17:35:00.643Z,19.45
2019-05-17T17:37:27.514Z,19.44
2019-05-17T17:39:54.316Z,19.45
2019-05-17T17:42:21.084Z,19.44
2019-05-17T17:44:47.893Z,19.43
2019-05-17T17:47:14.677Z,19.44
2019-05-17T17:49:41.459Z,19.43
2019-05-17T17:52:08.243Z,19.43
2019-05-17T17:54:35.000Z,19.42
2019-05-17T17:57:01.799Z,19.42
2019-05-17T17:59:28.618Z,19.42
2019-05-17T18:01:55.426Z,19.42
2019-05-17T18:04:22.197Z,19.42
2019-05-17T18:06:48.988Z,19.42
2019-05-17T18:09:15.793Z,19.41
2019-05-17T18:11:42.573Z,19.42
2019-05-17T18:14:13.235Z,19.41
2019-05-17T18:16:38.162Z,19.41
2019-05-17T18:19:04.943Z,19.44
2019-05-17T18:21:31.721Z,19.43
2019-05-17T18:23:58.516Z,19.42
2019-05-17T18:26:25.290Z,19.41
2019-05-17T18:28:52.074Z,19.41
2019-05-17T18:31:18.841Z,19.41
2019-05-17T18:33:45.619Z,19.41
2019-05-17T18:36:12.417Z,19.42
2019-05-17T18:38:39.186Z,19.41
2019-05-17T18:41:05.984Z,19.40
2019-05-17T18:43:32.751Z,19.39
2019-05-17T18:45:59.526Z,19.40
2019-05-17T18:48:26.288Z,19.39
2019-05-17T18:50:53.079Z,19.39
2019-05-17T18:53:19.862Z,19.39
2019-05-17T18:55:46.661Z,19.38
2019-05-17T18:58:13.470Z,19.39
2019-05-17T19:00:40.233Z,19.38
2019-05-17T19:03:07.020Z,19.38
2019-05-17T19:05:33.794Z,19.38
2019-05-17T19:08:00.599Z,19.38
2019-05-17T19:10:27.370Z,19.38
2019-05-17T19:12:54.157Z,19.37
2019-05-17T19:15:20.947Z,19.37
2019-05-17T19:17:47.732Z,19.38
2019-05-17T19:20:14.519Z,19.38
2019-05-17T19:22:41.366Z,19.37
2019-05-17T19:25:08.172Z,19.37
2019-05-17T19:27:34.964Z,19.37
2019-05-17T19:30:01.741Z,19.36
2019-05-17T19:32:28.975Z,19.37
2019-05-17T19:34:55.847Z,19.39
2019-05-17T19:37:22.618Z,19.42
2019-05-17T19:39:49.424Z,19.47
2019-05-17T19:42:16.287Z,19.47
2019-05-17T19:44:57.734Z,19.48
2019-05-17T19:47:11.606Z,19.50
2019-05-17T19:49:38.435Z,19.51
2019-05-17T19:52:05.215Z,19.56
2019-05-17T19:54:32.037Z,19.61
2019-05-17T19:56:58.842Z,19.66
2019-05-17T19:59:27.734Z,19.64
2019-05-17T20:01:54.674Z,19.62
2019-05-17T20:04:21.630Z,19.60
2019-05-17T20:06:48.531Z,19.60
2019-05-17T20:09:15.416Z,19.59
2019-05-17T20:11:42.306Z,19.58
2019-05-17T20:14:09.123Z,19.58
2019-05-17T20:16:36.031Z,19.57
2019-05-17T20:19:03.795Z,19.57
2019-05-17T20:21:31.088Z,19.57
2019-05-17T20:23:57.910Z,19.57
2019-05-17T20:26:24.789Z,19.58
2019-05-17T20:28:51.591Z,19.58
2019-05-17T20:31:18.440Z,19.57
2019-05-17T20:33:45.216Z,19.58
2019-05-17T20:36:12.053Z,19.57
2019-05-17T20:38:38.849Z,19.57
2019-05-17T20:41:05.641Z,19.58
2019-05-17T20:43:32.813Z,19.57
2019-05-17T20:45:59.626Z,19.58
2019-05-17T20:48:26.494Z,19.57
2019-05-17T20:50:53.487Z,19.57
2019-05-17T20:53:20.423Z,19.57
2019-05-17T20:55:47.281Z,19.57
2019-05-17T20:58:14.309Z,19.57
2019-05-17T21:00:41.280Z,19.57
2019-05-17T21:03:08.076Z,19.57
2019-05-17T21:05:36.797Z,19.57
2019-05-17T21:08:05.297Z,19.57
2019-05-17T21:10:32.114Z,19.58
2019-05-17T21:12:58.968Z,19.57
2019-05-17T21:15:25.909Z,19.57
2019-05-17T21:17:52.783Z,19.58
2019-05-17T21:20:19.695Z,19.57
2019-05-17T21:22:46.608Z,19.58
2019-05-17T21:25:13.520Z,19.58
2019-05-17T21:27:40.406Z,19.58
2019-05-17T21:30:07.397Z,19.57
2019-05-17T21:32:34.298Z,19.58
2019-05-17T21:35:01.176Z,19.57
2019-05-17T21:37:28.059Z,19.58
2019-05-17T21:39:55.342Z,19.56
2019-05-17T21:42:22.326Z,19.56
2019-05-17T21:44:49.355Z,19.57
2019-05-17T21:47:16.272Z,19.57
2019-05-17T21:49:43.184Z,19.57
2019-05-17T21:52:10.097Z,19.57
2019-05-17T21:54:37.018Z,19.57
2019-05-17T21:57:03.860Z,19.57
2019-05-17T21:59:30.691Z,19.58
2019-05-17T22:01:57.625Z,19.57
2019-05-17T22:04:26.937Z,19.57
2019-05-17T22:06:53.195Z,19.58
2019-05-17T22:09:19.970Z,19.58
2019-05-17T22:11:48.525Z,19.56
2019-05-17T22:14:15.597Z,19.57
2019-05-17T22:16:42.503Z,19.58
2019-05-17T22:19:09.385Z,19.57
2019-05-17T22:21:38.000Z,19.57
2019-05-17T22:24:04.929Z,19.59
2019-05-17T22:26:31.993Z,19.58
2019-05-17T22:28:59.059Z,19.59
2019-05-17T22:31:26.054Z,19.59
2019-05-17T22:33:53.011Z,19.59
2019-05-17T22:36:19.942Z,18.88
2019-05-17T22:38:46.790Z,19.58
2019-05-17T22:41:13.796Z,19.58
2019-05-17T22:43:40.745Z,19.58
2019-05-17T22:46:09.274Z,19.59
2019-05-17T22:48:37.486Z,19.58
2019-05-17T22:51:04.560Z,19.58
2019-05-17T22:53:31.529Z,19.58
2019-05-17T22:55:59.128Z,19.59
2019-05-17T22:58:26.133Z,19.58
2019-05-17T23:00:54.229Z,19.58
2019-05-17T23:03:21.487Z,19.58
2019-05-17T23:05:48.602Z,19.59
2019-05-17T23:08:15.521Z,19.58
2019-05-17T23:10:42.348Z,19.57
2019-05-17T23:13:09.399Z,19.57
2019-05-17T23:15:37.992Z,19.59
2019-05-17T23:18:05.377Z,19.58
2019-05-17T23:20:32.531Z,19.58
2019-05-17T23:22:59.513Z,19.58
2019-05-17T23:25:26.445Z,19.59
2019-05-17T23:27:53.290Z,19.58
2019-05-17T23:30:20.376Z,19.59
2019-05-17T23:32:47.279Z,19.58
2019-05-17T23:35:14.214Z,19.59
2019-05-17T23:37:41.135Z,19.59
2019-05-17T23:40:08.078Z,19.59
2019-05-17T23:42:35.075Z,19.58
2019-05-17T23:45:02.017Z,19.59
2019-05-17T23:47:28.948Z,19.59
2019-05-17T23:49:56.011Z,19.59
2019-05-17T23:52:22.925Z,19.58
2019-05-17T23:54:52.599Z,19.59
2019-05-17T23:57:20.616Z,19.58
2019-05-17T23:59:47.521Z,19.59
